createdAt,value
2019-03-17T00:01:18.474Z,2.70
2019-03-17T00:03:47.241Z,2.67
2019-03-17T00:06:15.977Z,2.87
2019-03-17T00:08:44.693Z,2.50
2019-03-17T00:11:13.546Z,3.37
2019-03-17T00:13:42.270Z,3.10
2019-03-17T00:16:11.102Z,2.90
2019-03-17T00:18:39.826Z,3.27
2019-03-17T00:21:08.645Z,3.60
2019-03-17T00:23:37.378Z,2.77
2019-03-17T00:26:06.170Z,3.07
2019-03-17T00:28:34.869Z,3.23
2019-03-17T00:31:03.679Z,3.60
2019-03-17T00:33:32.409Z,2.93
2019-03-17T00:36:01.121Z,3.23
2019-03-17T00:38:29.893Z,3.27
2019-03-17T00:40:58.593Z,3.00
2019-03-17T00:43:27.313Z,2.93
2019-03-17T00:45:56.113Z,2.90
2019-03-17T00:48:24.861Z,2.67
2019-03-17T00:50:53.649Z,2.97
2019-03-17T00:53:22.381Z,2.93
2019-03-17T00:55:51.171Z,2.67
2019-03-17T00:58:19.875Z,2.90
2019-03-17T01:00:49.529Z,2.40
2019-03-17T01:03:18.269Z,2.93
2019-03-17T01:05:47.013Z,2.23
2019-03-17T01:08:15.729Z,3.40
2019-03-17T01:10:44.478Z,2.37
2019-03-17T01:13:13.217Z,3.70
2019-03-17T01:15:41.988Z,3.00
2019-03-17T01:18:10.719Z,2.50
2019-03-17T01:20:39.493Z,3.00
2019-03-17T01:23:08.298Z,2.30
2019-03-17T01:25:37.031Z,2.60
2019-03-17T01:28:05.745Z,3.37
2019-03-17T01:30:34.613Z,2.40
2019-03-17T01:33:03.313Z,3.10
2019-03-17T01:35:32.778Z,2.40
2019-03-17T01:38:01.721Z,3.40
2019-03-17T01:40:30.413Z,2.57
2019-03-17T01:42:59.140Z,2.73
2019-03-17T01:45:27.921Z,2.10
2019-03-17T01:47:59.005Z,2.40
2019-03-17T01:50:30.557Z,2.43
2019-03-17T01:52:59.282Z,2.03
2019-03-17T01:55:28.086Z,2.43
2019-03-17T01:57:56.815Z,2.00
2019-03-17T02:00:25.630Z,2.33
2019-03-17T02:02:54.515Z,1.90
2019-03-17T02:05:23.236Z,2.67
2019-03-17T02:07:51.973Z,2.37
2019-03-17T02:10:20.677Z,2.07
2019-03-17T02:12:49.410Z,2.70
2019-03-17T02:15:18.213Z,2.00
2019-03-17T02:17:47.005Z,2.00
2019-03-17T02:20:15.793Z,2.47
2019-03-17T02:22:44.605Z,2.40
2019-03-17T02:25:15.465Z,2.70
2019-03-17T02:27:44.167Z,2.43
2019-03-17T02:30:13.162Z,2.87
2019-03-17T02:32:41.868Z,1.90
2019-03-17T02:35:10.671Z,2.13
2019-03-17T02:37:39.491Z,2.07
2019-03-17T02:40:08.294Z,2.23
2019-03-17T02:42:37.145Z,2.63
2019-03-17T02:45:06.398Z,1.93
2019-03-17T02:47:35.130Z,2.60
2019-03-17T02:50:04.243Z,2.53
2019-03-17T02:52:33.018Z,3.00
2019-03-17T02:55:01.724Z,2.73
2019-03-17T02:57:30.433Z,2.00
2019-03-17T02:59:59.190Z,2.03
2019-03-17T03:02:27.894Z,2.10
2019-03-17T03:04:56.598Z,2.50
2019-03-17T03:07:25.359Z,3.20
2019-03-17T03:09:54.074Z,3.67
2019-03-17T03:12:22.815Z,2.50
2019-03-17T03:14:51.543Z,2.63
2019-03-17T03:17:20.300Z,2.37
2019-03-17T03:19:48.999Z,2.13
2019-03-17T03:22:17.734Z,2.60
2019-03-17T03:24:46.490Z,2.63
2019-03-17T03:27:15.278Z,2.13
2019-03-17T03:29:44.078Z,2.20
2019-03-17T03:32:12.869Z,2.47
2019-03-17T03:34:41.570Z,2.20
2019-03-17T03:37:10.398Z,2.63
2019-03-17T03:39:39.114Z,2.40
2019-03-17T03:42:08.270Z,2.60
2019-03-17T03:44:37.020Z,2.47
2019-03-17T03:47:05.783Z,2.30
2019-03-17T03:49:34.490Z,2.30
2019-03-17T03:52:03.269Z,2.20
2019-03-17T03:54:32.170Z,2.30
2019-03-17T03:57:01.015Z,2.33
2019-03-17T03:59:29.930Z,2.57
2019-03-17T04:01:58.790Z,2.70
2019-03-17T04:04:27.486Z,2.03
2019-03-17T04:06:56.223Z,2.80
2019-03-17T04:09:24.922Z,2.33
2019-03-17T04:11:53.701Z,2.37
2019-03-17T04:14:22.463Z,2.60
2019-03-17T04:16:51.243Z,2.50
2019-03-17T04:19:20.180Z,2.63
2019-03-17T04:21:48.929Z,2.07
2019-03-17T04:24:17.648Z,2.40
2019-03-17T04:26:46.379Z,1.50
2019-03-17T04:29:15.196Z,0.70
2019-03-17T04:31:43.894Z,0.70
2019-03-17T04:34:12.649Z,0.60
2019-03-17T04:36:41.385Z,0.50
2019-03-17T04:39:10.117Z,1.00
2019-03-17T04:41:38.829Z,0.60
2019-03-17T04:44:19.893Z,0.70
2019-03-17T04:46:38.002Z,0.83
2019-03-17T04:49:06.830Z,0.53
2019-03-17T04:51:35.621Z,0.60
2019-03-17T04:54:04.431Z,0.50
2019-03-17T04:56:33.220Z,0.50
2019-03-17T04:59:01.918Z,0.53
2019-03-17T05:01:30.670Z,0.67
2019-03-17T05:03:59.381Z,0.43
2019-03-17T05:06:28.133Z,0.40
2019-03-17T05:08:56.847Z,0.50
2019-03-17T05:11:25.633Z,0.37
2019-03-17T05:13:54.410Z,0.40
2019-03-17T05:16:23.110Z,0.57
2019-03-17T05:18:51.810Z,0.60
2019-03-17T05:21:20.581Z,0.37
2019-03-17T05:23:49.281Z,0.43
2019-03-17T05:26:18.061Z,0.40
2019-03-17T05:28:46.801Z,0.67
2019-03-17T05:31:15.578Z,0.50
2019-03-17T05:33:44.324Z,0.37
2019-03-17T05:36:13.093Z,0.50
2019-03-17T05:38:41.829Z,0.40
2019-03-17T05:41:10.557Z,0.40
2019-03-17T05:43:39.275Z,0.40
2019-03-17T05:46:08.065Z,0.40
2019-03-17T05:48:36.776Z,0.30
2019-03-17T05:51:05.622Z,0.40
2019-03-17T05:53:34.381Z,0.30
2019-03-17T05:56:03.113Z,0.40
2019-03-17T05:58:31.849Z,0.60
2019-03-17T06:01:00.574Z,0.37
2019-03-17T06:03:29.293Z,0.50
2019-03-17T06:05:58.025Z,0.60
2019-03-17T06:08:26.743Z,0.67
2019-03-17T06:10:55.478Z,0.50
2019-03-17T06:13:24.185Z,0.30
2019-03-17T06:15:52.881Z,0.40
2019-03-17T06:18:21.594Z,0.30
2019-03-17T06:20:50.415Z,0.50
2019-03-17T06:23:19.157Z,0.30
2019-03-17T06:25:47.869Z,0.30
2019-03-17T06:28:16.625Z,0.30
2019-03-17T06:30:45.429Z,0.50
2019-03-17T06:33:14.328Z,0.70
2019-03-17T06:35:43.077Z,0.43
2019-03-17T06:38:11.841Z,0.40
2019-03-17T06:40:40.547Z,0.40
2019-03-17T06:43:09.274Z,0.50
2019-03-17T06:45:37.985Z,0.53
2019-03-17T06:48:06.758Z,0.33
2019-03-17T06:50:35.473Z,0.57
2019-03-17T06:53:04.326Z,0.50
2019-03-17T06:55:33.025Z,0.50
2019-03-17T06:58:01.769Z,0.73
2019-03-17T07:00:30.469Z,0.60
2019-03-17T07:02:59.165Z,1.10
2019-03-17T07:05:27.926Z,0.80
2019-03-17T07:07:56.652Z,0.90
2019-03-17T07:10:25.371Z,1.00
2019-03-17T07:12:54.090Z,0.93
2019-03-17T07:15:22.893Z,0.70
2019-03-17T07:17:51.633Z,0.90
2019-03-17T07:20:20.451Z,1.10
2019-03-17T07:22:49.177Z,1.27
2019-03-17T07:25:17.890Z,1.27
2019-03-17T07:27:46.681Z,1.50
2019-03-17T07:30:15.690Z,1.20
2019-03-17T07:32:44.541Z,1.47
2019-03-17T07:35:13.339Z,1.40
2019-03-17T07:37:42.077Z,1.10
2019-03-17T07:40:11.401Z,1.20
2019-03-17T07:42:40.118Z,1.40
2019-03-17T07:45:09.033Z,1.50
2019-03-17T07:47:37.776Z,1.40
2019-03-17T07:50:08.173Z,1.40
2019-03-17T07:52:36.886Z,1.23
2019-03-17T07:55:06.183Z,0.90
2019-03-17T07:57:34.913Z,0.87
2019-03-17T08:00:04.137Z,0.63
2019-03-17T08:02:33.153Z,0.90
2019-03-17T08:05:01.892Z,1.10
2019-03-17T08:07:30.606Z,1.23
2019-03-17T08:09:59.431Z,1.23
2019-03-17T08:12:28.289Z,1.00
2019-03-17T08:14:57.853Z,0.77
2019-03-17T08:17:26.934Z,1.10
2019-03-17T08:19:55.781Z,1.13
2019-03-17T08:22:24.508Z,2.20
2019-03-17T08:24:53.233Z,2.77
2019-03-17T08:27:22.027Z,1.80
2019-03-17T08:29:50.840Z,1.83
2019-03-17T08:32:19.557Z,1.00
2019-03-17T08:34:48.275Z,1.40
2019-03-17T08:37:17.084Z,1.00
2019-03-17T08:39:45.797Z,1.53
2019-03-17T08:42:14.526Z,1.73
2019-03-17T08:44:43.245Z,0.90
2019-03-17T08:47:11.930Z,1.03
2019-03-17T08:49:40.662Z,0.80
2019-03-17T08:52:09.350Z,1.60
2019-03-17T08:54:38.069Z,0.80
2019-03-17T08:57:06.809Z,0.90
2019-03-17T08:59:35.510Z,1.33
2019-03-17T09:02:04.301Z,1.10
2019-03-17T09:04:33.010Z,1.50
2019-03-17T09:07:01.725Z,1.00
2019-03-17T09:09:30.465Z,1.20
2019-03-17T09:11:59.192Z,0.70
2019-03-17T09:14:27.929Z,1.10
2019-03-17T09:16:56.654Z,0.90
2019-03-17T09:19:25.429Z,0.60
2019-03-17T09:21:54.144Z,0.80
2019-03-17T09:24:22.850Z,0.83
2019-03-17T09:26:51.598Z,0.90
2019-03-17T09:29:20.460Z,0.50
2019-03-17T09:31:49.152Z,0.60
2019-03-17T09:34:17.883Z,0.60
2019-03-17T09:36:46.616Z,0.80
2019-03-17T09:39:15.485Z,0.97
2019-03-17T09:41:44.321Z,0.73
2019-03-17T09:44:13.055Z,0.70
2019-03-17T09:46:41.754Z,0.97
2019-03-17T09:49:10.614Z,1.10
2019-03-17T09:51:39.422Z,1.43
2019-03-17T09:54:08.193Z,1.27
2019-03-17T09:56:36.945Z,0.90
2019-03-17T09:59:05.731Z,1.10
2019-03-17T10:01:34.438Z,0.80
2019-03-17T10:04:03.237Z,1.53
2019-03-17T10:06:31.971Z,1.33
2019-03-17T10:09:00.685Z,1.23
2019-03-17T10:11:31.654Z,1.50
2019-03-17T10:14:00.502Z,1.20
2019-03-17T10:16:29.258Z,1.67
2019-03-17T10:18:57.986Z,1.13
2019-03-17T10:21:29.174Z,1.30
2019-03-17T10:23:57.898Z,1.47
2019-03-17T10:26:26.709Z,1.33
2019-03-17T10:28:55.489Z,1.13
2019-03-17T10:31:24.287Z,1.37
2019-03-17T10:33:53.102Z,1.20
2019-03-17T10:36:21.883Z,1.10
2019-03-17T10:38:50.754Z,1.10
2019-03-17T10:41:19.485Z,1.10
2019-03-17T10:43:48.203Z,1.10
2019-03-17T10:46:17.108Z,1.50
2019-03-17T10:48:45.861Z,1.00
2019-03-17T10:51:14.689Z,0.97
2019-03-17T10:53:43.428Z,1.10
2019-03-17T10:56:12.207Z,0.87
2019-03-17T10:58:40.898Z,0.87
2019-03-17T11:01:09.602Z,1.23
2019-03-17T11:03:38.349Z,1.53
2019-03-17T11:06:07.049Z,1.33
2019-03-17T11:08:35.778Z,1.17
2019-03-17T11:11:04.721Z,1.33
2019-03-17T11:13:33.449Z,1.17
2019-03-17T11:16:02.245Z,0.87
2019-03-17T11:18:30.957Z,0.93
2019-03-17T11:20:59.681Z,1.00
2019-03-17T11:23:28.385Z,0.93
2019-03-17T11:25:57.134Z,0.80
2019-03-17T11:28:25.846Z,0.63
2019-03-17T11:30:59.327Z,0.97
2019-03-17T11:33:28.197Z,0.83
2019-03-17T11:35:56.975Z,1.17
2019-03-17T11:38:31.729Z,0.83
2019-03-17T11:41:00.449Z,0.73
2019-03-17T11:43:29.189Z,0.80
2019-03-17T11:45:57.882Z,1.43
2019-03-17T11:48:26.598Z,1.03
2019-03-17T11:50:56.896Z,1.07
2019-03-17T11:53:25.605Z,0.93
2019-03-17T11:55:54.647Z,0.97
2019-03-17T11:58:23.429Z,1.00
2019-03-17T12:00:52.205Z,0.90
2019-03-17T12:03:23.246Z,0.80
2019-03-17T12:05:51.401Z,0.80
2019-03-17T12:08:22.913Z,0.93
2019-03-17T12:10:51.718Z,1.00
2019-03-17T12:13:20.413Z,1.10
2019-03-17T12:15:49.197Z,1.13
2019-03-17T12:18:17.998Z,1.20
2019-03-17T12:20:46.726Z,0.90
2019-03-17T12:23:15.460Z,1.17
2019-03-17T12:25:44.258Z,1.20
2019-03-17T12:28:13.012Z,1.30
2019-03-17T12:30:41.787Z,1.07
2019-03-17T12:33:10.487Z,1.90
2019-03-17T12:35:41.965Z,1.47
2019-03-17T12:38:10.665Z,1.03
2019-03-17T12:40:39.380Z,1.37
2019-03-17T12:43:08.145Z,1.07
2019-03-17T12:45:36.881Z,0.97
2019-03-17T12:48:05.824Z,1.20
2019-03-17T12:50:34.699Z,1.60
2019-03-17T12:53:03.590Z,1.07
2019-03-17T12:55:32.342Z,1.17
2019-03-17T12:58:01.156Z,0.87
2019-03-17T13:00:29.883Z,0.63
2019-03-17T13:02:58.998Z,0.90
2019-03-17T13:05:27.847Z,1.17
2019-03-17T13:07:57.715Z,0.97
2019-03-17T13:10:29.288Z,1.00
2019-03-17T13:12:58.310Z,1.30
2019-03-17T13:15:27.182Z,0.93
2019-03-17T13:17:58.729Z,1.10
2019-03-17T13:20:29.644Z,0.90
2019-03-17T13:22:57.949Z,0.97
2019-03-17T13:25:26.680Z,1.07
2019-03-17T13:27:55.473Z,1.20
2019-03-17T13:30:24.198Z,1.33
2019-03-17T13:32:53.213Z,1.13
2019-03-17T13:35:21.934Z,1.03
2019-03-17T13:37:50.633Z,0.93
2019-03-17T13:40:28.665Z,0.77
2019-03-17T13:42:50.054Z,1.03
2019-03-17T13:45:18.864Z,0.90
2019-03-17T13:47:47.848Z,0.80
2019-03-17T13:50:16.734Z,1.00
2019-03-17T13:52:45.566Z,0.67
2019-03-17T13:55:14.692Z,0.97
2019-03-17T13:57:43.786Z,1.10
2019-03-17T14:00:14.394Z,0.70
2019-03-17T14:02:43.174Z,1.17
2019-03-17T14:05:12.578Z,1.23
2019-03-17T14:07:41.421Z,0.90
2019-03-17T14:10:15.020Z,0.87
2019-03-17T14:12:43.627Z,0.90
2019-03-17T14:15:13.410Z,1.00
2019-03-17T14:17:42.567Z,0.90
2019-03-17T14:20:16.731Z,1.37
2019-03-17T14:22:45.744Z,1.00
2019-03-17T14:25:23.337Z,1.17
2019-03-17T14:27:54.246Z,0.80
2019-03-17T14:30:23.079Z,0.63
2019-03-17T14:32:51.942Z,0.80
2019-03-17T14:35:21.741Z,1.03
2019-03-17T14:37:51.995Z,0.60
2019-03-17T14:40:20.714Z,0.60
2019-03-17T14:42:49.567Z,0.80
2019-03-17T14:45:18.285Z,0.87
2019-03-17T14:47:47.429Z,1.43
2019-03-17T14:50:17.153Z,0.97
2019-03-17T14:52:46.351Z,0.80
2019-03-17T14:55:15.759Z,0.73
2019-03-17T14:57:44.547Z,0.80
2019-03-17T15:00:15.586Z,0.80
2019-03-17T15:02:44.461Z,1.10
2019-03-17T15:05:13.684Z,0.80
2019-03-17T15:07:42.457Z,1.10
2019-03-17T15:10:15.916Z,0.90
2019-03-17T15:12:44.678Z,1.10
2019-03-17T15:15:14.238Z,0.60
2019-03-17T15:17:45.601Z,0.80
2019-03-17T15:20:17.976Z,0.97
2019-03-17T15:22:47.192Z,0.80
2019-03-17T15:25:16.209Z,0.60
2019-03-17T15:27:48.036Z,1.00
2019-03-17T15:30:18.899Z,1.00
2019-03-17T15:32:47.677Z,0.83
2019-03-17T15:35:16.543Z,1.10
2019-03-17T15:37:48.591Z,0.87
2019-03-17T15:40:17.648Z,1.20
2019-03-17T15:42:47.174Z,0.83
2019-03-17T15:45:22.214Z,1.10
2019-03-17T15:47:52.617Z,1.43
2019-03-17T15:50:21.662Z,1.63
2019-03-17T15:52:52.739Z,1.30
2019-03-17T15:55:21.693Z,1.40
2019-03-17T15:57:50.588Z,1.27
2019-03-17T16:00:25.571Z,1.43
2019-03-17T16:02:50.693Z,0.83
2019-03-17T16:05:19.822Z,1.20
2019-03-17T16:07:51.884Z,0.87
2019-03-17T16:10:20.865Z,0.90
2019-03-17T16:12:49.653Z,1.30
2019-03-17T16:15:18.509Z,1.10
2019-03-17T16:17:47.343Z,1.60
2019-03-17T16:20:17.681Z,1.30
2019-03-17T16:22:46.401Z,1.30
2019-03-17T16:25:15.971Z,1.20
2019-03-17T16:27:44.785Z,1.70
2019-03-17T16:30:18.444Z,1.90
2019-03-17T16:32:47.327Z,1.47
2019-03-17T16:35:16.089Z,2.73
2019-03-17T16:37:45.354Z,2.27
2019-03-17T16:40:15.333Z,1.40
2019-03-17T16:42:44.100Z,1.70
2019-03-17T16:45:13.451Z,0.97
2019-03-17T16:47:42.174Z,1.00
2019-03-17T16:50:12.345Z,1.10
2019-03-17T16:52:41.042Z,1.20
2019-03-17T16:55:11.492Z,0.90
2019-03-17T16:57:40.537Z,0.90
2019-03-17T17:00:12.275Z,0.70
2019-03-17T17:02:41.002Z,0.83
2019-03-17T17:05:10.182Z,0.97
2019-03-17T17:07:38.997Z,1.13
2019-03-17T17:10:09.307Z,0.70
2019-03-17T17:12:38.057Z,1.30
2019-03-17T17:15:10.754Z,1.30
2019-03-17T17:17:39.641Z,1.33
2019-03-17T17:20:10.504Z,1.07
2019-03-17T17:22:39.226Z,1.07
2019-03-17T17:25:09.705Z,1.00
2019-03-17T17:27:38.478Z,0.80
2019-03-17T17:30:08.128Z,1.03
2019-03-17T17:32:36.862Z,1.03
2019-03-17T17:35:06.245Z,1.00
2019-03-17T17:37:35.157Z,1.10
2019-03-17T17:40:04.893Z,1.13
2019-03-17T17:42:33.662Z,0.90
2019-03-17T17:45:02.479Z,1.20
2019-03-17T17:47:31.213Z,1.13
2019-03-17T17:50:01.197Z,1.13
2019-03-17T17:52:29.936Z,0.87
2019-03-17T17:54:58.664Z,0.90
2019-03-17T17:57:27.438Z,0.90
2019-03-17T17:59:56.254Z,1.10
2019-03-17T18:02:25.027Z,1.03
2019-03-17T18:04:53.771Z,1.00
2019-03-17T18:07:22.625Z,1.03
2019-03-17T18:09:51.421Z,0.97
2019-03-17T18:12:21.400Z,1.17
2019-03-17T18:14:50.363Z,1.60
2019-03-17T18:17:19.098Z,0.97
2019-03-17T18:19:50.592Z,0.97
2019-03-17T18:22:19.307Z,1.07
2019-03-17T18:24:48.030Z,1.10
2019-03-17T18:27:18.221Z,1.30
2019-03-17T18:29:47.187Z,1.20
2019-03-17T18:32:15.962Z,1.17
2019-03-17T18:34:44.665Z,1.13
2019-03-17T18:37:13.544Z,1.03
2019-03-17T18:39:42.317Z,1.10
2019-03-17T18:42:11.068Z,1.10
2019-03-17T18:44:39.773Z,1.00
2019-03-17T18:47:08.701Z,0.90
2019-03-17T18:49:37.449Z,1.00
2019-03-17T18:52:06.233Z,1.40
2019-03-17T18:54:34.985Z,1.23
2019-03-17T18:57:03.925Z,1.20
2019-03-17T18:59:32.693Z,1.20
2019-03-17T19:02:01.437Z,1.30
2019-03-17T19:04:30.189Z,1.57
2019-03-17T19:06:58.885Z,1.40
2019-03-17T19:09:29.829Z,1.60
2019-03-17T19:12:00.540Z,1.27
2019-03-17T19:14:32.091Z,1.40
2019-03-17T19:17:00.985Z,1.57
2019-03-17T19:19:31.874Z,1.20
2019-03-17T19:22:00.713Z,1.00
2019-03-17T19:24:29.833Z,1.40
2019-03-17T19:26:58.573Z,1.40
2019-03-17T19:29:27.296Z,2.17
2019-03-17T19:31:59.135Z,1.63
2019-03-17T19:34:27.911Z,1.20
2019-03-17T19:36:59.190Z,1.80
2019-03-17T19:39:27.901Z,1.70
2019-03-17T19:41:56.629Z,1.87
2019-03-17T19:44:25.511Z,1.77
2019-03-17T19:46:54.229Z,1.20
2019-03-17T19:49:22.949Z,2.53
2019-03-17T19:51:51.673Z,2.67
2019-03-17T19:54:20.430Z,2.17
2019-03-17T19:56:49.145Z,1.83
2019-03-17T19:59:17.873Z,1.30
2019-03-17T20:01:46.637Z,1.23
2019-03-17T20:04:15.555Z,1.90
2019-03-17T20:06:44.319Z,2.63
2019-03-17T20:09:13.143Z,2.10
2019-03-17T20:11:41.957Z,2.00
2019-03-17T20:14:10.701Z,1.40
2019-03-17T20:16:41.478Z,1.77
2019-03-17T20:19:10.246Z,3.17
2019-03-17T20:21:38.949Z,2.50
2019-03-17T20:24:07.745Z,1.60
2019-03-17T20:26:36.633Z,2.90
2019-03-17T20:29:05.336Z,2.33
2019-03-17T20:31:34.136Z,1.90
2019-03-17T20:34:02.896Z,1.17
2019-03-17T20:36:31.561Z,1.90
2019-03-17T20:39:00.375Z,1.40
2019-03-17T20:41:29.352Z,1.17
2019-03-17T20:43:58.125Z,1.63
2019-03-17T20:46:29.246Z,1.60
2019-03-17T20:48:58.029Z,1.90
2019-03-17T20:51:28.688Z,2.17
2019-03-17T20:53:57.480Z,1.33
2019-03-17T20:56:26.498Z,1.10
2019-03-17T20:58:55.158Z,1.77
2019-03-17T21:01:24.033Z,1.60
2019-03-17T21:03:52.738Z,1.40
2019-03-17T21:06:23.070Z,1.53
2019-03-17T21:08:51.813Z,1.33
2019-03-17T21:11:20.702Z,1.30
2019-03-17T21:13:51.285Z,1.80
2019-03-17T21:16:20.005Z,1.53
2019-03-17T21:18:50.449Z,1.50
2019-03-17T21:21:22.790Z,1.60
2019-03-17T21:23:54.334Z,1.70
2019-03-17T21:26:24.378Z,1.73
2019-03-17T21:28:53.034Z,2.27
2019-03-17T21:31:21.843Z,1.60
2019-03-17T21:33:50.553Z,1.43
2019-03-17T21:36:21.174Z,1.67
2019-03-17T21:38:49.974Z,2.20
2019-03-17T21:41:18.813Z,1.50
2019-03-17T21:43:58.786Z,1.70
2019-03-17T21:46:18.137Z,1.30
2019-03-17T21:48:46.909Z,1.83
2019-03-17T21:51:15.641Z,1.80
2019-03-17T21:53:44.361Z,1.80
2019-03-17T21:56:13.246Z,1.47
2019-03-17T21:58:42.293Z,1.60
2019-03-17T22:01:11.040Z,1.20
2019-03-17T22:03:39.741Z,1.40
2019-03-17T22:06:08.449Z,2.13
2019-03-17T22:08:37.233Z,1.37
2019-03-17T22:11:05.957Z,1.37
2019-03-17T22:13:34.665Z,1.73
2019-03-17T22:16:03.455Z,1.50
2019-03-17T22:18:32.163Z,1.27
2019-03-17T22:21:02.362Z,1.10
2019-03-17T22:23:31.095Z,1.47
2019-03-17T22:25:59.813Z,1.40
2019-03-17T22:28:28.545Z,1.37
2019-03-17T22:30:57.289Z,1.40
2019-03-17T22:33:25.998Z,1.70
2019-03-17T22:35:54.857Z,2.20
2019-03-17T22:38:23.721Z,1.17
2019-03-17T22:40:52.467Z,1.20
2019-03-17T22:43:21.162Z,1.20
2019-03-17T22:45:49.896Z,1.60
2019-03-17T22:48:18.615Z,1.10
2019-03-17T22:50:47.319Z,0.83
2019-03-17T22:53:16.065Z,1.37
2019-03-17T22:55:44.833Z,1.23
2019-03-17T22:58:13.554Z,1.00
2019-03-17T23:00:43.694Z,1.20
2019-03-17T23:03:13.085Z,1.33
2019-03-17T23:05:41.851Z,1.40
2019-03-17T23:08:10.580Z,1.63
2019-03-17T23:10:39.430Z,1.63
2019-03-17T23:13:08.211Z,1.17
2019-03-17T23:15:37.083Z,2.03
2019-03-17T23:18:05.966Z,1.30
2019-03-17T23:20:34.825Z,1.40
2019-03-17T23:23:03.583Z,1.40
2019-03-17T23:25:34.958Z,1.60
2019-03-17T23:28:03.756Z,1.60
2019-03-17T23:30:32.493Z,2.47
2019-03-17T23:33:01.208Z,1.87
2019-03-17T23:35:29.917Z,3.37
2019-03-17T23:37:58.697Z,1.67
2019-03-17T23:40:27.458Z,2.20
2019-03-17T23:42:56.162Z,2.17
2019-03-17T23:45:24.881Z,2.30
2019-03-17T23:47:53.611Z,2.57
2019-03-17T23:50:22.334Z,2.13
2019-03-17T23:52:51.037Z,2.47
2019-03-17T23:55:19.748Z,2.13
2019-03-17T23:57:48.467Z,1.67
